createdAt,value
2022-12-08T00:01:36.263Z,5.83
2022-12-08T00:04:05.503Z,5.63
2022-12-08T00:06:54.366Z,6.50
2022-12-08T00:09:25.979Z,12.50
2022-12-08T00:11:58.855Z,6.20
2022-12-08T00:14:30.056Z,7.13
2022-12-08T00:16:59.205Z,10.40
2022-12-08T00:19:27.967Z,7.43
2022-12-08T00:21:58.293Z,9.53
2022-12-08T00:24:31.984Z,10.50
2022-12-08T00:27:00.108Z,8.90
2022-12-08T00:29:28.494Z,6.53
2022-12-08T00:31:56.809Z,8.57
2022-12-08T00:34:25.274Z,7.80
2022-12-08T00:36:53.396Z,9.07
2022-12-08T00:39:23.048Z,8.20
2022-12-08T00:42:14.405Z,9.03
2022-12-08T00:44:43.452Z,8.53
2022-12-08T00:47:11.981Z,7.27
2022-12-08T00:49:40.259Z,12.00
2022-12-08T00:52:08.480Z,9.90
2022-12-08T00:54:38.179Z,9.30
2022-12-08T00:57:06.338Z,11.80
2022-12-08T00:59:34.584Z,11.50
2022-12-08T01:02:02.801Z,12.33
2022-12-08T01:04:30.958Z,13.80
2022-12-08T01:06:59.120Z,12.97
2022-12-08T01:09:27.290Z,10.30
2022-12-08T01:11:57.101Z,9.80
2022-12-08T01:14:25.276Z,11.73
2022-12-08T01:16:53.578Z,18.17
2022-12-08T01:19:21.817Z,14.93
2022-12-08T01:21:49.990Z,14.27
2022-12-08T01:24:20.299Z,10.63
2022-12-08T01:26:49.545Z,10.10
2022-12-08T01:29:19.236Z,16.30
2022-12-08T01:31:47.433Z,12.17
2022-12-08T01:34:15.757Z,19.80
2022-12-08T01:36:44.505Z,11.70
2022-12-08T01:39:16.317Z,12.50
2022-12-08T01:41:45.333Z,15.50
2022-12-08T01:44:54.566Z,13.53
2022-12-08T01:47:26.566Z,10.17
2022-12-08T01:49:54.815Z,14.10
2022-12-08T01:52:27.877Z,12.87
2022-12-08T01:55:00.962Z,11.47
2022-12-08T01:57:32.383Z,11.70
2022-12-08T02:00:06.844Z,12.47
2022-12-08T02:02:47.280Z,10.17
2022-12-08T02:05:17.366Z,11.87
2022-12-08T02:07:45.757Z,9.53
2022-12-08T02:10:20.310Z,8.63
2022-12-08T02:12:50.348Z,13.17
2022-12-08T02:15:20.386Z,8.87
2022-12-08T02:18:02.220Z,10.20
2022-12-08T02:20:42.553Z,8.63
2022-12-08T02:23:22.323Z,16.33
2022-12-08T02:26:21.343Z,10.40
2022-12-08T02:29:13.377Z,9.60
2022-12-08T02:31:59.059Z,6.60
2022-12-08T02:34:32.708Z,8.03
2022-12-08T02:37:10.132Z,9.00
2022-12-08T02:39:51.866Z,9.30
2022-12-08T02:42:28.662Z,7.77
2022-12-08T02:45:03.214Z,13.00
2022-12-08T02:47:33.117Z,8.07
2022-12-08T02:50:03.141Z,12.70
2022-12-08T02:52:41.259Z,9.07
2022-12-08T02:55:16.244Z,9.30
2022-12-08T02:57:57.524Z,10.13
2022-12-08T03:00:28.622Z,12.53
2022-12-08T03:03:10.332Z,7.03
2022-12-08T03:05:56.916Z,11.13
2022-12-08T03:08:33.759Z,7.90
2022-12-08T03:11:05.953Z,12.03
2022-12-08T03:13:42.045Z,7.40
2022-12-08T03:16:13.765Z,8.60
2022-12-08T03:18:46.251Z,10.03
2022-12-08T03:21:18.175Z,11.03
2022-12-08T03:23:49.307Z,8.53
2022-12-08T03:26:21.132Z,8.77
2022-12-08T03:28:50.313Z,6.23
2022-12-08T03:31:20.796Z,6.33
2022-12-08T03:33:53.428Z,5.80
2022-12-08T03:36:23.485Z,8.30
2022-12-08T03:38:54.630Z,6.83
2022-12-08T03:41:23.721Z,9.13
2022-12-08T03:43:53.682Z,5.07
2022-12-08T03:48:51.096Z,5.40
2022-12-08T03:51:19.275Z,9.17
2022-12-08T03:53:49.374Z,10.53
2022-12-08T03:56:23.485Z,11.03
2022-12-08T03:58:51.668Z,11.03
2022-12-08T04:01:20.032Z,13.93
2022-12-08T04:03:48.669Z,9.60
2022-12-08T04:06:17.436Z,9.27
2022-12-08T04:08:45.619Z,11.33
2022-12-08T04:11:15.213Z,9.60
2022-12-08T04:13:44.216Z,8.13
2022-12-08T04:16:16.891Z,7.97
2022-12-08T04:18:45.079Z,9.83
2022-12-08T04:21:13.913Z,6.30
2022-12-08T04:23:42.426Z,10.70
2022-12-08T04:26:10.661Z,7.93
2022-12-08T04:28:40.153Z,9.80
2022-12-08T04:31:08.712Z,7.83
2022-12-08T04:33:36.948Z,7.70
2022-12-08T04:36:06.551Z,8.70
2022-12-08T04:38:35.141Z,9.80
2022-12-08T04:41:03.365Z,8.67
2022-12-08T04:43:31.493Z,6.80
2022-12-08T04:46:00.985Z,7.73
2022-12-08T04:48:29.317Z,7.37
2022-12-08T04:50:57.443Z,6.13
2022-12-08T04:53:26.702Z,7.43
2022-12-08T04:55:54.957Z,7.90
2022-12-08T04:58:23.225Z,5.67
2022-12-08T05:00:51.889Z,5.73
2022-12-08T05:03:28.093Z,6.40
2022-12-08T05:05:57.035Z,9.90
2022-12-08T05:08:25.298Z,6.70
2022-12-08T05:10:53.611Z,6.20
2022-12-08T05:13:21.739Z,6.00
2022-12-08T05:15:49.890Z,9.80
2022-12-08T05:18:18.076Z,6.90
2022-12-08T05:20:47.522Z,9.80
2022-12-08T05:23:15.660Z,8.07
2022-12-08T05:25:43.789Z,6.07
2022-12-08T05:28:40.263Z,10.20
2022-12-08T05:30:59.987Z,9.50
2022-12-08T05:33:28.124Z,8.10
2022-12-08T05:35:57.584Z,8.70
2022-12-08T05:38:25.727Z,9.97
2022-12-08T05:40:53.873Z,10.17
2022-12-08T05:43:22.280Z,12.53
2022-12-08T05:45:50.474Z,9.40
2022-12-08T05:48:18.641Z,8.90
2022-12-08T05:50:48.013Z,8.47
2022-12-08T05:53:19.189Z,9.80
2022-12-08T05:55:47.897Z,11.90
2022-12-08T05:58:18.928Z,9.30
2022-12-08T06:00:48.040Z,9.70
2022-12-08T06:03:18.137Z,10.23
2022-12-08T06:05:47.971Z,9.70
2022-12-08T06:08:16.203Z,8.87
2022-12-08T06:10:46.666Z,9.10
2022-12-08T06:13:15.278Z,11.77
2022-12-08T06:15:43.872Z,10.43
2022-12-08T06:18:12.478Z,11.63
2022-12-08T06:20:40.578Z,11.90
2022-12-08T06:23:08.698Z,9.47
2022-12-08T06:25:36.778Z,11.07
2022-12-08T06:28:07.412Z,11.37
2022-12-08T06:30:35.515Z,11.07
2022-12-08T06:33:03.631Z,9.80
2022-12-08T06:35:31.718Z,12.73
2022-12-08T06:37:59.836Z,11.47
2022-12-08T06:40:27.982Z,11.30
2022-12-08T06:42:56.087Z,10.00
2022-12-08T06:45:25.511Z,12.63
2022-12-08T06:47:53.669Z,11.67
2022-12-08T06:50:22.052Z,13.67
2022-12-08T06:53:01.051Z,11.67
2022-12-08T06:58:21.674Z,11.70
2022-12-08T07:00:51.306Z,12.50
2022-12-08T07:03:19.678Z,12.50
2022-12-08T07:05:47.902Z,13.10
2022-12-08T07:08:16.188Z,13.20
2022-12-08T07:10:44.420Z,15.63
2022-12-08T07:13:12.595Z,16.90
2022-12-08T07:15:40.729Z,12.90
2022-12-08T07:18:10.218Z,14.67
2022-12-08T07:20:38.681Z,15.83
2022-12-08T07:23:07.099Z,18.83
2022-12-08T07:25:35.225Z,14.50
2022-12-08T07:28:09.187Z,19.27
2022-12-08T07:30:37.437Z,20.50
2022-12-08T07:33:06.514Z,16.07
2022-12-08T07:35:36.001Z,20.80
2022-12-08T07:38:04.301Z,17.67
2022-12-08T07:40:32.431Z,19.67
2022-12-08T07:43:00.561Z,17.60
2022-12-08T07:45:31.694Z,18.03
2022-12-08T07:48:00.183Z,19.37
2022-12-08T07:50:28.336Z,20.83
2022-12-08T07:52:57.899Z,15.40
2022-12-08T07:55:26.826Z,15.30
2022-12-08T07:57:55.078Z,16.67
2022-12-08T08:00:23.406Z,17.70
2022-12-08T08:02:52.058Z,16.77
2022-12-08T08:05:20.699Z,19.13
2022-12-08T08:07:48.904Z,15.80
2022-12-08T08:10:18.880Z,24.53
2022-12-08T08:12:47.588Z,16.90
2022-12-08T08:15:15.813Z,16.80
2022-12-08T08:17:43.945Z,19.13
2022-12-08T08:20:13.005Z,15.63
2022-12-08T08:22:41.120Z,17.10
2022-12-08T08:25:10.083Z,15.20
2022-12-08T08:27:39.682Z,20.07
2022-12-08T08:30:09.733Z,16.57
2022-12-08T08:32:38.549Z,15.17
2022-12-08T08:35:07.687Z,16.63
2022-12-08T08:37:35.841Z,19.43
2022-12-08T08:40:05.368Z,21.67
2022-12-08T08:42:33.925Z,17.50
2022-12-08T08:45:03.448Z,15.00
2022-12-08T08:47:31.597Z,20.93
2022-12-08T08:49:59.713Z,15.70
2022-12-08T08:52:28.124Z,22.30
2022-12-08T08:54:56.735Z,16.97
2022-12-08T08:57:26.074Z,17.10
2022-12-08T08:59:54.944Z,19.97
2022-12-08T09:02:26.741Z,16.40
2022-12-08T09:04:54.899Z,16.40
2022-12-08T09:07:23.136Z,19.13
2022-12-08T09:09:51.314Z,14.40
2022-12-08T09:12:19.435Z,18.43
2022-12-08T09:14:47.632Z,22.63
2022-12-08T09:17:16.261Z,20.27
2022-12-08T09:19:45.937Z,21.40
2022-12-08T09:22:16.478Z,24.83
2022-12-08T09:24:44.664Z,20.33
2022-12-08T09:27:12.807Z,18.10
2022-12-08T09:29:40.922Z,13.67
2022-12-08T09:32:09.068Z,20.23
2022-12-08T09:34:37.535Z,20.00
2022-12-08T09:37:07.068Z,19.47
2022-12-08T09:39:35.464Z,19.10
2022-12-08T09:42:06.795Z,16.53
2022-12-08T09:44:51.611Z,15.40
2022-12-08T09:47:23.680Z,18.07
2022-12-08T09:49:58.581Z,15.13
2022-12-08T09:52:33.595Z,14.83
2022-12-08T09:55:10.661Z,19.90
2022-12-08T09:57:39.068Z,18.13
2022-12-08T10:00:13.205Z,19.63
2022-12-08T10:02:47.015Z,16.83
2022-12-08T10:05:15.824Z,16.30
2022-12-08T10:07:49.413Z,16.40
2022-12-08T10:10:32.683Z,16.80
2022-12-08T10:13:08.387Z,17.27
2022-12-08T10:15:45.288Z,17.53
2022-12-08T10:18:18.644Z,19.33
2022-12-08T10:20:49.064Z,16.20
2022-12-08T10:23:28.451Z,16.80
2022-12-08T10:26:01.845Z,20.03
2022-12-08T10:28:30.270Z,18.80
2022-12-08T10:30:58.471Z,17.70
2022-12-08T10:33:29.109Z,17.50
2022-12-08T10:36:02.864Z,18.03
2022-12-08T10:38:33.488Z,18.00
2022-12-08T10:41:07.272Z,22.63
2022-12-08T10:43:37.758Z,18.40
2022-12-08T10:46:11.879Z,19.40
2022-12-08T10:48:49.426Z,18.13
2022-12-08T10:51:30.413Z,19.93
2022-12-08T10:53:59.955Z,23.60
2022-12-08T10:56:30.407Z,22.40
2022-12-08T10:59:13.545Z,19.47
2022-12-08T11:01:43.218Z,17.47
2022-12-08T11:04:16.274Z,22.47
2022-12-08T11:06:44.969Z,18.17
2022-12-08T11:09:38.088Z,16.63
2022-12-08T11:12:13.878Z,19.70
2022-12-08T11:14:51.132Z,20.93
2022-12-08T11:17:26.519Z,21.47
2022-12-08T11:20:01.149Z,15.30
2022-12-08T11:22:33.339Z,16.50
2022-12-08T11:25:11.366Z,13.90
2022-12-08T11:27:43.421Z,20.27
2022-12-08T11:30:16.951Z,13.80
2022-12-08T11:32:46.803Z,14.07
2022-12-08T11:35:22.248Z,14.80
2022-12-08T11:37:50.383Z,15.27
2022-12-08T11:40:25.397Z,14.20
2022-12-08T11:43:01.696Z,17.47
2022-12-08T11:45:34.708Z,16.90
2022-12-08T11:48:11.584Z,15.83
2022-12-08T11:50:45.806Z,15.37
2022-12-08T11:53:19.199Z,13.37
2022-12-08T11:55:54.556Z,13.07
2022-12-08T11:58:27.882Z,15.77
2022-12-08T12:00:56.575Z,14.93
2022-12-08T12:03:32.286Z,17.23
2022-12-08T12:09:33.697Z,18.87
2022-12-08T12:12:16.590Z,12.77
2022-12-08T12:15:13.780Z,14.20
2022-12-08T12:17:47.104Z,16.33
2022-12-08T12:20:20.915Z,15.90
2022-12-08T12:22:56.600Z,16.70
2022-12-08T12:25:27.420Z,14.40
2022-12-08T12:28:02.432Z,14.50
2022-12-08T12:30:50.548Z,14.17
2022-12-08T12:33:19.624Z,13.90
2022-12-08T12:35:48.977Z,14.00
2022-12-08T12:38:41.773Z,13.23
2022-12-08T12:41:12.941Z,16.10
2022-12-08T12:44:10.041Z,14.10
2022-12-08T12:46:56.379Z,15.17
2022-12-08T12:49:53.473Z,16.83
2022-12-08T12:52:44.033Z,14.20
2022-12-08T12:55:52.114Z,13.50
2022-12-08T12:58:24.408Z,12.90
2022-12-08T13:01:31.731Z,15.07
2022-12-08T13:04:06.179Z,16.80
2022-12-08T13:06:38.827Z,13.57
2022-12-08T13:09:08.293Z,14.33
2022-12-08T13:11:52.632Z,14.87
2022-12-08T13:14:33.076Z,14.43
2022-12-08T13:17:06.157Z,13.50
2022-12-08T13:19:38.129Z,13.63
2022-12-08T13:22:39.584Z,16.80
2022-12-08T13:25:48.597Z,15.30
2022-12-08T13:28:29.204Z,16.30
2022-12-08T13:30:59.548Z,13.03
2022-12-08T13:33:32.394Z,15.67
2022-12-08T13:36:08.776Z,17.07
2022-12-08T13:38:39.645Z,11.33
2022-12-08T13:41:15.266Z,10.90
2022-12-08T13:44:20.159Z,12.37
2022-12-08T13:56:51.237Z,21.40
2022-12-08T13:58:18.763Z,17.10
2022-12-08T14:00:57.330Z,15.87
2022-12-08T14:03:25.836Z,16.10
2022-12-08T14:06:12.956Z,14.17
2022-12-08T14:09:00.352Z,23.17
2022-12-08T14:11:36.338Z,23.97
2022-12-08T14:14:06.944Z,19.67
2022-12-08T14:16:39.524Z,16.77
2022-12-08T14:19:16.967Z,17.80
2022-12-08T14:21:55.000Z,16.07
2022-12-08T14:24:24.013Z,17.00
2022-12-08T14:26:54.725Z,18.63
2022-12-08T14:29:44.739Z,20.37
2022-12-08T14:32:26.048Z,15.97
2022-12-08T14:34:56.069Z,17.23
2022-12-08T14:37:28.530Z,17.17
2022-12-08T14:40:01.820Z,15.17
2022-12-08T14:42:30.928Z,18.47
2022-12-08T14:45:02.964Z,17.20
2022-12-08T14:47:33.309Z,16.07
2022-12-08T14:50:03.033Z,15.03
2022-12-08T14:52:33.541Z,14.07
2022-12-08T14:55:01.730Z,17.33
2022-12-08T14:57:36.290Z,14.23
2022-12-08T15:00:11.126Z,13.87
2022-12-08T15:02:46.535Z,16.00
2022-12-08T15:05:19.295Z,16.67
2022-12-08T15:07:51.528Z,17.73
2022-12-08T15:10:23.484Z,16.20
2022-12-08T15:13:00.497Z,11.87
2022-12-08T15:15:30.275Z,22.00
2022-12-08T15:18:13.147Z,13.17
2022-12-08T15:20:43.997Z,14.73
2022-12-08T15:23:21.663Z,17.53
2022-12-08T15:25:50.352Z,19.50
2022-12-08T15:28:23.994Z,15.73
2022-12-08T15:30:56.302Z,14.43
2022-12-08T15:33:24.523Z,10.77
2022-12-08T15:35:53.350Z,8.10
2022-12-08T15:38:25.327Z,9.17
2022-12-08T15:40:53.501Z,7.17
2022-12-08T15:43:22.696Z,6.23
2022-12-08T15:45:58.974Z,5.93
2022-12-08T15:48:29.862Z,5.70
2022-12-08T15:50:58.378Z,6.10
2022-12-08T15:53:27.881Z,5.50
2022-12-08T15:58:53.411Z,5.93
2022-12-08T16:01:22.831Z,5.70
2022-12-08T16:09:34.279Z,11.20
2022-12-08T16:12:20.434Z,15.03
2022-12-08T16:17:38.534Z,18.87
2022-12-08T16:20:09.727Z,21.77
2022-12-08T16:22:59.654Z,17.17
2022-12-08T16:25:36.348Z,12.80
2022-12-08T16:28:53.423Z,13.17
2022-12-08T16:31:02.866Z,11.90
2022-12-08T16:33:31.458Z,10.80
2022-12-08T16:35:59.594Z,6.43
2022-12-08T16:38:27.818Z,10.50
2022-12-08T16:41:14.791Z,8.07
2022-12-08T16:43:43.087Z,5.90
2022-12-08T16:46:19.027Z,7.77
2022-12-08T16:48:47.232Z,8.60
2022-12-08T16:51:26.611Z,10.30
2022-12-08T16:53:55.478Z,9.40
2022-12-08T16:56:30.627Z,9.30
2022-12-08T16:59:01.837Z,8.57
2022-12-08T17:01:30.378Z,6.07
2022-12-08T17:04:29.781Z,8.47
2022-12-08T17:06:47.054Z,8.50
2022-12-08T17:09:15.253Z,6.40
2022-12-08T17:11:45.098Z,8.40
2022-12-08T17:14:14.230Z,8.60
2022-12-08T17:16:42.552Z,10.37
2022-12-08T17:19:11.074Z,9.30
2022-12-08T17:21:39.219Z,8.20
2022-12-08T17:24:07.517Z,8.83
2022-12-08T17:26:35.742Z,10.93
2022-12-08T17:29:05.641Z,8.50
2022-12-08T17:31:34.598Z,6.30
2022-12-08T17:34:03.959Z,7.63
2022-12-08T17:36:32.587Z,11.60
2022-12-08T17:39:01.494Z,10.60
2022-12-08T17:41:30.353Z,9.10
2022-12-08T17:43:58.518Z,10.17
2022-12-08T17:46:28.042Z,5.73
2022-12-08T17:48:56.263Z,10.47
2022-12-08T17:51:24.393Z,10.80
2022-12-08T17:53:52.522Z,9.53
2022-12-08T17:56:22.284Z,9.50
2022-12-08T17:58:54.566Z,9.10
2022-12-08T18:01:24.088Z,9.80
2022-12-08T18:03:53.606Z,10.67
2022-12-08T18:06:24.654Z,16.90
2022-12-08T18:08:55.480Z,9.37
2022-12-08T18:11:23.936Z,14.00
2022-12-08T18:13:53.048Z,11.80
2022-12-08T18:16:23.066Z,8.53
2022-12-08T18:18:52.818Z,12.03
2022-12-08T18:21:23.671Z,11.07
2022-12-08T18:23:52.664Z,9.47
2022-12-08T18:26:21.571Z,10.00
2022-12-08T18:28:49.732Z,10.93
2022-12-08T18:31:19.614Z,11.23
2022-12-08T18:33:49.922Z,16.73
2022-12-08T18:36:22.057Z,15.33
2022-12-08T18:38:51.276Z,13.97
2022-12-08T18:41:23.348Z,17.00
2022-12-08T18:43:51.797Z,15.70
2022-12-08T18:46:20.130Z,14.80
2022-12-08T18:48:50.127Z,18.33
2022-12-08T18:51:21.985Z,16.03
2022-12-08T18:53:51.134Z,17.27
2022-12-08T18:56:23.120Z,16.23
2022-12-08T18:58:51.328Z,17.60
2022-12-08T19:01:20.066Z,14.43
2022-12-08T19:04:12.078Z,16.40
2022-12-08T19:06:40.005Z,15.60
2022-12-08T19:09:08.890Z,12.33
2022-12-08T19:11:37.171Z,14.50
2022-12-08T19:14:05.755Z,16.23
2022-12-08T19:16:34.147Z,13.07
2022-12-08T19:19:02.363Z,14.27
2022-12-08T19:21:30.538Z,12.30
2022-12-08T19:24:00.126Z,14.57
2022-12-08T19:26:29.282Z,12.97
2022-12-08T19:28:58.764Z,15.93
2022-12-08T19:31:26.997Z,16.20
2022-12-08T19:33:55.520Z,13.00
2022-12-08T19:36:24.853Z,13.37
2022-12-08T19:39:10.864Z,14.27
2022-12-08T19:41:58.086Z,16.07
2022-12-08T19:44:45.967Z,17.40
2022-12-08T19:47:14.360Z,15.17
2022-12-08T19:49:42.583Z,14.27
2022-12-08T19:52:10.774Z,13.47
2022-12-08T19:54:39.055Z,15.90
2022-12-08T19:57:08.536Z,14.00
2022-12-08T19:59:36.682Z,19.37
2022-12-08T20:02:05.220Z,15.70
2022-12-08T20:04:33.473Z,15.70
2022-12-08T20:07:01.619Z,16.90
2022-12-08T20:09:30.506Z,21.13
2022-12-08T20:11:58.598Z,13.50
2022-12-08T20:14:28.058Z,16.70
2022-12-08T20:16:56.495Z,19.77
2022-12-08T20:19:25.868Z,18.40
2022-12-08T20:21:54.038Z,22.10
2022-12-08T20:24:22.144Z,16.23
2022-12-08T20:26:50.242Z,20.60
2022-12-08T20:29:18.833Z,24.10
2022-12-08T20:31:48.399Z,24.07
2022-12-08T20:34:17.735Z,22.93
2022-12-08T20:36:46.572Z,27.10
2022-12-08T20:39:17.270Z,24.23
2022-12-08T20:41:46.758Z,25.40
2022-12-08T20:44:14.922Z,31.17
2022-12-08T20:46:49.036Z,30.20
2022-12-08T20:49:18.975Z,20.77
2022-12-08T20:51:47.271Z,17.63
2022-12-08T20:54:15.492Z,15.87
2022-12-08T20:56:48.302Z,22.07
2022-12-08T20:59:18.147Z,17.83
2022-12-08T21:01:46.496Z,18.13
2022-12-08T21:04:14.948Z,22.60
2022-12-08T21:06:44.625Z,19.97
2022-12-08T21:09:12.905Z,20.97
2022-12-08T21:11:41.296Z,18.60
2022-12-08T21:14:09.446Z,20.17
2022-12-08T21:16:37.899Z,21.27
2022-12-08T21:19:06.626Z,18.63
2022-12-08T21:21:35.032Z,21.37
2022-12-08T21:24:05.726Z,19.47
2022-12-08T21:26:33.893Z,32.37
2022-12-08T21:29:02.316Z,18.70
2022-12-08T21:31:31.980Z,18.60
2022-12-08T21:34:00.676Z,21.97
2022-12-08T21:36:31.071Z,18.70
2022-12-08T21:39:01.106Z,23.83
2022-12-08T21:41:49.107Z,26.33
2022-12-08T21:44:18.919Z,21.70
2022-12-08T21:46:47.581Z,26.27
2022-12-08T21:49:16.382Z,27.53
2022-12-08T21:51:44.727Z,24.23
2022-12-08T21:54:18.618Z,38.17
2022-12-08T21:56:50.172Z,33.00
2022-12-08T21:59:19.779Z,25.10
2022-12-08T22:01:48.532Z,30.03
2022-12-08T22:04:18.369Z,23.53
2022-12-08T22:06:47.021Z,23.20
2022-12-08T22:09:15.573Z,25.33
2022-12-08T22:11:45.215Z,33.77
2022-12-08T22:14:15.443Z,23.30
2022-12-08T22:16:44.255Z,20.93
2022-12-08T22:19:13.167Z,19.97
2022-12-08T22:21:41.606Z,18.80
2022-12-08T22:24:10.326Z,18.30
2022-12-08T22:26:38.620Z,13.97
2022-12-08T22:29:07.234Z,14.97
2022-12-08T22:31:37.286Z,14.13
2022-12-08T22:34:06.272Z,14.93
2022-12-08T22:36:35.103Z,18.27
2022-12-08T22:39:05.307Z,16.10
2022-12-08T22:41:34.116Z,12.47
2022-12-08T22:44:02.413Z,14.43
2022-12-08T22:46:31.653Z,12.87
2022-12-08T22:49:01.718Z,14.10
2022-12-08T22:51:29.976Z,18.63
2022-12-08T22:53:58.236Z,14.37
2022-12-08T22:56:26.500Z,18.90
2022-12-08T22:58:54.745Z,20.70
2022-12-08T23:01:26.690Z,15.53
2022-12-08T23:03:55.080Z,14.30
2022-12-08T23:06:24.807Z,13.20
2022-12-08T23:08:53.717Z,13.80
2022-12-08T23:11:24.439Z,14.80
2022-12-08T23:13:53.259Z,16.80
2022-12-08T23:16:21.518Z,16.47
2022-12-08T23:18:50.029Z,14.67
2022-12-08T23:21:20.371Z,15.13
2022-12-08T23:23:50.066Z,13.83
2022-12-08T23:26:20.796Z,13.27
2022-12-08T23:28:49.617Z,14.73
2022-12-08T23:31:18.862Z,15.30
2022-12-08T23:33:47.125Z,16.80
2022-12-08T23:36:16.565Z,15.53
2022-12-08T23:38:45.138Z,14.57
2022-12-08T23:41:16.598Z,15.67
2022-12-08T23:43:46.318Z,11.87
2022-12-08T23:46:15.379Z,16.97
2022-12-08T23:48:44.245Z,13.70
2022-12-08T23:51:13.109Z,15.40
2022-12-08T23:53:41.698Z,17.00
2022-12-08T23:56:12.313Z,14.60
2022-12-08T23:58:43.151Z,21.37
